createdAt,value
2018-03-16T00:00:40.342Z,35.00
2018-03-16T00:01:45.867Z,33.80
2018-03-16T00:02:51.362Z,33.50
2018-03-16T00:03:56.890Z,32.50
2018-03-16T00:05:02.384Z,33.90
2018-03-16T00:06:07.894Z,34.20
2018-03-16T00:07:13.411Z,33.70
2018-03-16T00:08:18.915Z,33.50
2018-03-16T00:09:24.422Z,32.70
2018-03-16T00:10:29.935Z,33.30
2018-03-16T00:11:35.438Z,33.80
2018-03-16T00:12:40.962Z,34.60
2018-03-16T00:13:46.459Z,34.30
2018-03-16T00:14:51.975Z,34.40
2018-03-16T00:15:57.487Z,35.00
2018-03-16T00:17:03.007Z,33.30
2018-03-16T00:18:08.508Z,33.50
2018-03-16T00:19:14.014Z,33.10
2018-03-16T00:20:19.533Z,33.70
2018-03-16T00:21:25.051Z,34.70
2018-03-16T00:22:30.549Z,34.00
2018-03-16T00:23:36.057Z,33.70
2018-03-16T00:24:41.570Z,34.30
2018-03-16T00:25:47.088Z,33.50
2018-03-16T00:26:52.588Z,34.90
2018-03-16T00:27:58.105Z,35.30
2018-03-16T00:29:03.615Z,34.90
2018-03-16T00:30:09.123Z,34.10
2018-03-16T00:31:14.793Z,33.00
2018-03-16T00:32:20.150Z,34.50
2018-03-16T00:33:25.653Z,34.80
2018-03-16T00:34:31.204Z,33.90
2018-03-16T00:35:36.673Z,34.30
2018-03-16T00:36:42.184Z,33.60
2018-03-16T00:37:47.697Z,32.70
2018-03-16T00:38:53.222Z,34.00
2018-03-16T00:39:58.717Z,34.60
2018-03-16T00:41:04.228Z,34.10
2018-03-16T00:42:09.735Z,33.20
2018-03-16T00:43:15.249Z,33.40
2018-03-16T00:44:20.756Z,32.60
2018-03-16T00:45:26.277Z,32.30
2018-03-16T00:46:31.785Z,33.20
2018-03-16T00:47:37.289Z,33.60
2018-03-16T00:48:42.799Z,33.00
2018-03-16T00:49:48.314Z,31.90
2018-03-16T00:50:53.832Z,31.60
2018-03-16T00:51:59.330Z,32.80
2018-03-16T00:53:04.848Z,32.30
2018-03-16T00:54:10.354Z,31.50
2018-03-16T00:55:15.873Z,31.40
2018-03-16T00:56:21.384Z,32.20
2018-03-16T00:57:26.896Z,32.50
2018-03-16T00:58:32.396Z,33.00
2018-03-16T00:59:37.908Z,32.70
2018-03-16T01:00:43.425Z,32.80
2018-03-16T01:01:48.956Z,34.20
2018-03-16T01:02:54.446Z,33.20
2018-03-16T01:03:59.956Z,33.10
2018-03-16T01:05:05.473Z,32.00
2018-03-16T01:06:10.971Z,32.10
2018-03-16T01:07:16.562Z,32.50
2018-03-16T01:08:21.997Z,32.20
2018-03-16T01:09:27.506Z,31.20
2018-03-16T01:10:33.039Z,32.10
2018-03-16T01:11:38.527Z,32.60
2018-03-16T01:12:44.038Z,32.60
2018-03-16T01:13:49.552Z,32.80
2018-03-16T01:14:55.055Z,32.10
2018-03-16T01:16:00.573Z,33.20
2018-03-16T01:17:06.076Z,33.40
2018-03-16T01:18:11.595Z,33.30
2018-03-16T01:19:17.100Z,34.10
2018-03-16T01:20:22.608Z,33.60
2018-03-16T01:21:28.129Z,34.60
2018-03-16T01:22:33.636Z,35.50
2018-03-16T01:23:39.149Z,36.00
2018-03-16T01:24:44.658Z,36.50
2018-03-16T01:25:50.166Z,35.70
2018-03-16T01:26:55.676Z,37.10
2018-03-16T01:28:01.188Z,37.90
2018-03-16T01:29:06.703Z,37.60
2018-03-16T01:30:12.216Z,37.90
2018-03-16T01:31:17.719Z,38.20
2018-03-16T01:32:23.230Z,38.80
2018-03-16T01:33:28.741Z,37.90
2018-03-16T01:34:34.251Z,38.50
2018-03-16T01:35:39.765Z,38.20
2018-03-16T01:36:45.274Z,38.70
2018-03-16T01:37:50.775Z,38.00
2018-03-16T01:38:56.290Z,37.30
2018-03-16T01:40:01.796Z,38.50
2018-03-16T01:41:07.308Z,39.40
2018-03-16T01:42:12.826Z,39.70
2018-03-16T01:43:18.326Z,39.30
2018-03-16T01:44:23.836Z,39.70
2018-03-16T01:45:29.354Z,39.80
2018-03-16T01:46:34.865Z,39.60
2018-03-16T01:47:40.372Z,39.30
2018-03-16T01:48:45.881Z,38.00
2018-03-16T01:49:51.396Z,38.20
2018-03-16T01:50:56.987Z,39.20
2018-03-16T01:52:02.407Z,39.50
2018-03-16T01:53:07.934Z,39.90
2018-03-16T01:54:13.445Z,39.80
2018-03-16T01:55:18.944Z,39.30
2018-03-16T01:56:24.459Z,39.00
2018-03-16T01:57:29.962Z,39.40
2018-03-16T01:58:35.475Z,38.70
2018-03-16T01:59:40.983Z,38.50
2018-03-16T02:00:46.496Z,38.60
2018-03-16T02:01:52.014Z,38.70
2018-03-16T02:02:57.523Z,38.90
2018-03-16T02:04:03.024Z,39.20
2018-03-16T02:05:08.540Z,38.20
2018-03-16T02:06:14.044Z,38.30
2018-03-16T02:07:19.564Z,40.10
2018-03-16T02:08:25.066Z,39.40
2018-03-16T02:09:30.575Z,40.40
2018-03-16T02:10:36.087Z,38.50
2018-03-16T02:11:41.596Z,38.60
2018-03-16T02:12:47.106Z,38.20
2018-03-16T02:13:52.626Z,39.00
2018-03-16T02:14:58.130Z,39.30
2018-03-16T02:16:03.655Z,38.20
2018-03-16T02:17:09.148Z,39.80
2018-03-16T02:18:14.667Z,39.70
2018-03-16T02:19:20.177Z,40.40
2018-03-16T02:20:25.770Z,40.80
2018-03-16T02:21:31.191Z,40.60
2018-03-16T02:22:36.719Z,41.20
2018-03-16T02:23:42.208Z,41.80
2018-03-16T02:24:47.725Z,39.60
2018-03-16T02:25:53.234Z,40.20
2018-03-16T02:26:58.745Z,39.90
2018-03-16T02:28:04.254Z,39.70
2018-03-16T02:29:09.773Z,40.00
2018-03-16T02:30:15.281Z,38.90
2018-03-16T02:31:20.794Z,39.50
2018-03-16T02:32:26.302Z,39.80
2018-03-16T02:33:31.859Z,40.20
2018-03-16T02:34:37.324Z,39.60
2018-03-16T02:35:42.828Z,41.00
2018-03-16T02:36:48.335Z,39.60
2018-03-16T02:37:53.846Z,39.30
2018-03-16T02:38:59.363Z,39.90
2018-03-16T02:40:04.869Z,39.10
2018-03-16T02:41:10.396Z,39.70
2018-03-16T02:42:15.891Z,39.90
2018-03-16T02:43:21.402Z,39.70
2018-03-16T02:44:26.912Z,42.00
2018-03-16T02:45:32.424Z,39.80
2018-03-16T02:46:37.938Z,39.50
2018-03-16T02:47:43.434Z,39.70
2018-03-16T02:48:48.949Z,39.70
2018-03-16T02:49:54.461Z,40.90
2018-03-16T02:50:59.969Z,39.90
2018-03-16T02:52:05.489Z,40.50
2018-03-16T02:53:10.987Z,40.70
2018-03-16T02:54:16.506Z,39.90
2018-03-16T02:55:22.010Z,38.70
2018-03-16T02:56:27.522Z,39.80
2018-03-16T02:57:33.046Z,39.80
2018-03-16T02:58:38.541Z,38.50
2018-03-16T02:59:44.051Z,38.50
2018-03-16T03:00:49.563Z,42.00
2018-03-16T03:01:55.074Z,41.00
2018-03-16T03:03:00.579Z,39.00
2018-03-16T03:04:06.088Z,39.40
2018-03-16T03:05:11.605Z,38.30
2018-03-16T03:06:17.112Z,37.60
2018-03-16T03:07:22.623Z,38.30
2018-03-16T03:08:28.133Z,38.70
2018-03-16T03:09:33.643Z,39.70
2018-03-16T03:10:39.157Z,39.00
2018-03-16T03:11:44.661Z,37.80
2018-03-16T03:12:50.196Z,40.10
2018-03-16T03:13:55.700Z,39.00
2018-03-16T03:15:01.202Z,38.30
2018-03-16T03:16:06.708Z,39.50
2018-03-16T03:17:12.247Z,39.20
2018-03-16T03:18:17.727Z,38.30
2018-03-16T03:19:23.241Z,38.30
2018-03-16T03:20:28.743Z,38.90
2018-03-16T03:21:34.251Z,37.70
2018-03-16T03:22:39.766Z,38.10
2018-03-16T03:23:45.279Z,38.10
2018-03-16T03:24:50.785Z,37.70
2018-03-16T03:25:56.304Z,38.50
2018-03-16T03:27:01.809Z,37.90
2018-03-16T03:28:07.314Z,39.90
2018-03-16T03:29:12.826Z,39.70
2018-03-16T03:30:18.340Z,38.50
2018-03-16T03:31:23.847Z,38.50
2018-03-16T03:32:29.362Z,38.50
2018-03-16T03:33:34.868Z,37.40
2018-03-16T03:34:40.380Z,37.80
2018-03-16T03:35:45.886Z,39.40
2018-03-16T03:36:51.404Z,39.90
2018-03-16T03:37:56.907Z,40.70
2018-03-16T03:39:02.415Z,41.00
2018-03-16T03:40:07.933Z,40.90
2018-03-16T03:41:13.436Z,40.10
2018-03-16T03:42:18.946Z,39.40
2018-03-16T03:43:24.465Z,39.50
2018-03-16T03:44:29.975Z,39.10
2018-03-16T03:45:35.483Z,40.40
2018-03-16T03:46:40.999Z,39.70
2018-03-16T03:47:46.504Z,40.20
2018-03-16T03:48:52.016Z,41.00
2018-03-16T03:49:57.530Z,40.00
2018-03-16T03:51:03.031Z,40.50
2018-03-16T03:52:08.545Z,39.70
2018-03-16T03:53:14.056Z,39.00
2018-03-16T03:54:19.566Z,39.40
2018-03-16T03:55:25.074Z,40.60
2018-03-16T03:56:30.587Z,41.00
2018-03-16T03:57:36.093Z,41.50
2018-03-16T03:58:41.608Z,40.60
2018-03-16T03:59:47.121Z,40.10
2018-03-16T04:00:52.623Z,40.50
2018-03-16T04:01:58.154Z,41.20
2018-03-16T04:03:03.642Z,40.90
2018-03-16T04:04:09.156Z,40.40
2018-03-16T04:05:14.666Z,39.20
2018-03-16T04:06:20.174Z,40.60
2018-03-16T04:07:25.691Z,40.80
2018-03-16T04:08:31.192Z,41.10
2018-03-16T04:09:36.710Z,39.70
2018-03-16T04:10:42.211Z,41.40
2018-03-16T04:11:47.723Z,40.70
2018-03-16T04:12:53.236Z,41.20
2018-03-16T04:13:58.739Z,40.00
2018-03-16T04:15:04.259Z,40.00
2018-03-16T04:16:09.765Z,41.30
2018-03-16T04:17:15.275Z,40.80
2018-03-16T04:18:20.786Z,40.20
2018-03-16T04:19:26.317Z,40.70
2018-03-16T04:20:31.806Z,40.00
2018-03-16T04:21:37.313Z,41.20
2018-03-16T04:22:42.824Z,41.30
2018-03-16T04:23:48.342Z,42.50
2018-03-16T04:24:53.852Z,42.60
2018-03-16T04:25:59.368Z,40.20
2018-03-16T04:27:04.871Z,40.60
2018-03-16T04:28:10.380Z,40.30
2018-03-16T04:29:15.892Z,40.10
2018-03-16T04:30:21.395Z,40.50
2018-03-16T04:31:26.907Z,41.60
2018-03-16T04:32:32.417Z,40.90
2018-03-16T04:33:37.928Z,41.20
2018-03-16T04:34:43.434Z,40.70
2018-03-16T04:35:48.944Z,40.40
2018-03-16T04:36:54.459Z,41.90
2018-03-16T04:37:59.986Z,39.50
2018-03-16T04:39:05.483Z,40.60
2018-03-16T04:40:10.985Z,41.90
2018-03-16T04:41:16.504Z,40.30
2018-03-16T04:42:22.012Z,39.80
2018-03-16T04:43:27.549Z,41.00
2018-03-16T04:44:33.024Z,41.80
2018-03-16T04:45:38.547Z,40.90
2018-03-16T04:46:44.058Z,41.80
2018-03-16T04:47:49.556Z,41.20
2018-03-16T04:48:55.069Z,40.60
2018-03-16T04:50:00.582Z,41.40
2018-03-16T04:51:06.086Z,40.50
2018-03-16T04:52:11.617Z,41.60
2018-03-16T04:53:17.114Z,40.50
2018-03-16T04:54:22.631Z,41.90
2018-03-16T04:55:28.131Z,40.10
2018-03-16T04:56:33.636Z,38.80
2018-03-16T04:57:39.167Z,39.80
2018-03-16T04:58:44.656Z,38.60
2018-03-16T04:59:50.166Z,40.50
2018-03-16T05:00:55.689Z,39.50
2018-03-16T05:02:01.197Z,39.80
2018-03-16T05:03:06.696Z,39.80
2018-03-16T05:04:12.208Z,38.40
2018-03-16T05:05:17.718Z,39.40
2018-03-16T05:06:23.266Z,37.50
2018-03-16T05:07:28.738Z,37.90
2018-03-16T05:08:34.246Z,38.90
2018-03-16T05:09:39.755Z,39.10
2018-03-16T05:10:45.266Z,39.90
2018-03-16T05:11:50.809Z,40.90
2018-03-16T05:12:56.286Z,39.90
2018-03-16T05:14:01.805Z,40.10
2018-03-16T05:15:07.305Z,39.70
2018-03-16T05:16:12.834Z,40.00
2018-03-16T05:17:18.329Z,41.00
2018-03-16T05:18:23.835Z,39.60
2018-03-16T05:19:29.348Z,40.10
2018-03-16T05:20:34.856Z,40.30
2018-03-16T05:21:40.374Z,39.70
2018-03-16T05:22:45.879Z,41.40
2018-03-16T05:23:51.388Z,40.20
2018-03-16T05:24:56.894Z,40.50
2018-03-16T05:26:02.416Z,39.60
2018-03-16T05:27:07.920Z,41.70
2018-03-16T05:28:13.426Z,41.20
2018-03-16T05:29:18.940Z,40.10
2018-03-16T05:30:24.447Z,40.40
2018-03-16T05:31:29.957Z,41.40
2018-03-16T05:32:35.471Z,39.70
2018-03-16T05:33:40.975Z,40.10
2018-03-16T05:34:46.489Z,40.60
2018-03-16T05:35:51.997Z,42.40
2018-03-16T05:36:57.513Z,42.20
2018-03-16T05:38:03.018Z,42.50
2018-03-16T05:39:08.525Z,41.00
2018-03-16T05:40:14.036Z,41.10
2018-03-16T05:41:19.547Z,41.90
2018-03-16T05:42:25.060Z,42.20
2018-03-16T05:43:30.572Z,39.80
2018-03-16T05:44:36.078Z,41.80
2018-03-16T05:45:41.597Z,41.10
2018-03-16T05:46:47.101Z,42.70
2018-03-16T05:47:52.608Z,43.50
2018-03-16T05:48:58.119Z,42.50
2018-03-16T05:50:03.630Z,42.70
2018-03-16T05:51:09.138Z,43.50
2018-03-16T05:52:14.654Z,41.00
2018-03-16T05:53:20.162Z,40.30
2018-03-16T05:54:25.669Z,40.60
2018-03-16T05:55:31.183Z,39.10
2018-03-16T05:56:36.686Z,41.90
2018-03-16T05:57:42.196Z,40.30
2018-03-16T05:58:47.708Z,40.50
2018-03-16T05:59:53.217Z,39.80
2018-03-16T06:00:58.798Z,39.90
2018-03-16T06:02:04.240Z,40.10
2018-03-16T06:03:09.745Z,40.90
2018-03-16T06:04:15.254Z,40.60
2018-03-16T06:05:20.766Z,38.30
2018-03-16T06:06:26.273Z,39.70
2018-03-16T06:07:31.789Z,41.20
2018-03-16T06:08:37.307Z,40.90
2018-03-16T06:09:42.803Z,39.40
2018-03-16T06:10:48.312Z,40.20
2018-03-16T06:11:53.823Z,41.70
2018-03-16T06:12:59.332Z,39.00
2018-03-16T06:14:04.842Z,37.80
2018-03-16T06:15:10.361Z,37.70
2018-03-16T06:16:15.866Z,39.90
2018-03-16T06:17:21.374Z,38.60
2018-03-16T06:18:26.883Z,38.10
2018-03-16T06:19:32.397Z,38.40
2018-03-16T06:20:37.903Z,37.20
2018-03-16T06:21:43.417Z,39.90
2018-03-16T06:22:48.930Z,37.70
2018-03-16T06:23:54.443Z,38.30
2018-03-16T06:24:59.945Z,36.50
2018-03-16T06:26:05.455Z,35.90
2018-03-16T06:27:10.996Z,35.10
2018-03-16T06:28:16.488Z,35.70
2018-03-16T06:29:21.987Z,34.60
2018-03-16T06:30:27.497Z,33.70
2018-03-16T06:31:33.000Z,34.90
2018-03-16T06:32:38.515Z,33.80
2018-03-16T06:33:44.026Z,34.30
2018-03-16T06:34:49.637Z,32.20
2018-03-16T06:35:55.044Z,33.20
2018-03-16T06:37:00.572Z,33.50
2018-03-16T06:38:06.061Z,31.90
2018-03-16T06:39:11.576Z,32.20
2018-03-16T06:40:17.087Z,31.70
2018-03-16T06:41:22.587Z,30.70
2018-03-16T06:42:28.102Z,30.50
2018-03-16T06:43:33.609Z,31.40
2018-03-16T06:44:39.257Z,30.00
2018-03-16T06:45:44.645Z,29.70
2018-03-16T06:46:50.136Z,30.50
2018-03-16T06:47:55.652Z,28.70
2018-03-16T06:49:01.157Z,29.80
2018-03-16T06:50:06.665Z,28.40
2018-03-16T06:51:12.174Z,27.80
2018-03-16T06:52:17.690Z,26.90
2018-03-16T06:53:23.199Z,26.50
2018-03-16T06:54:28.702Z,26.60
2018-03-16T06:55:34.224Z,24.70
2018-03-16T06:56:39.731Z,25.90
2018-03-16T06:57:45.240Z,25.20
2018-03-16T06:58:50.746Z,23.40
2018-03-16T06:59:56.256Z,24.30
2018-03-16T07:01:01.761Z,22.30
2018-03-16T07:02:07.276Z,22.50
2018-03-16T07:03:12.785Z,22.30
2018-03-16T07:04:18.297Z,22.60
2018-03-16T07:05:23.801Z,23.00
2018-03-16T07:06:29.317Z,22.40
2018-03-16T07:07:34.818Z,22.20
2018-03-16T07:08:40.331Z,22.90
2018-03-16T07:09:45.845Z,22.90
2018-03-16T07:10:51.354Z,22.60
2018-03-16T07:11:56.868Z,22.40
2018-03-16T07:13:02.365Z,23.00
2018-03-16T07:14:07.876Z,21.40
2018-03-16T07:15:13.392Z,21.00
2018-03-16T07:16:18.901Z,21.70
2018-03-16T07:17:24.404Z,22.30
2018-03-16T07:18:29.918Z,23.10
2018-03-16T07:19:35.425Z,22.00
2018-03-16T07:20:40.942Z,22.60
2018-03-16T07:21:46.458Z,23.40
2018-03-16T07:22:51.956Z,23.40
2018-03-16T07:23:57.458Z,22.80
2018-03-16T07:25:02.975Z,23.40
2018-03-16T07:26:08.486Z,23.30
2018-03-16T07:27:13.995Z,23.10
2018-03-16T07:28:19.506Z,22.30
2018-03-16T07:29:25.008Z,22.60
2018-03-16T07:30:30.523Z,22.50
2018-03-16T07:31:36.026Z,23.00
2018-03-16T07:32:41.553Z,23.20
2018-03-16T07:33:47.045Z,23.20
2018-03-16T07:34:52.555Z,23.30
2018-03-16T07:35:58.073Z,22.50
2018-03-16T07:37:03.578Z,22.40
2018-03-16T07:38:09.096Z,22.60
2018-03-16T07:39:14.597Z,21.70
2018-03-16T07:40:20.111Z,21.90
2018-03-16T07:41:25.612Z,22.20
2018-03-16T07:42:31.123Z,21.50
2018-03-16T07:43:36.642Z,21.70
2018-03-16T07:44:42.142Z,22.70
2018-03-16T07:45:47.654Z,22.70
2018-03-16T07:46:53.156Z,22.30
2018-03-16T07:47:58.670Z,22.70
2018-03-16T07:49:04.176Z,23.30
2018-03-16T07:50:09.774Z,22.50
2018-03-16T07:51:15.205Z,21.90
2018-03-16T07:52:20.770Z,22.10
2018-03-16T07:53:26.309Z,22.50
2018-03-16T07:54:31.729Z,21.80
2018-03-16T07:55:37.246Z,22.80
2018-03-16T07:56:42.751Z,22.60
2018-03-16T07:57:48.255Z,22.70
2018-03-16T07:58:53.766Z,21.90
2018-03-16T07:59:59.276Z,22.60
2018-03-16T08:01:04.823Z,22.60
2018-03-16T08:02:10.307Z,21.20
2018-03-16T08:03:15.798Z,21.50
2018-03-16T08:04:21.310Z,20.60
2018-03-16T08:05:26.816Z,21.50
2018-03-16T08:06:32.329Z,22.00
2018-03-16T08:07:37.841Z,21.50
2018-03-16T08:08:43.415Z,20.20
2018-03-16T08:09:48.861Z,20.20
2018-03-16T08:10:54.363Z,19.60
2018-03-16T08:11:59.876Z,21.40
2018-03-16T08:13:05.389Z,21.30
2018-03-16T08:14:10.895Z,20.10
2018-03-16T08:15:16.449Z,20.50
2018-03-16T08:16:21.916Z,19.30
2018-03-16T08:17:27.426Z,20.00
2018-03-16T08:18:32.926Z,19.70
2018-03-16T08:19:38.446Z,19.10
2018-03-16T08:20:43.958Z,19.40
2018-03-16T08:21:49.453Z,19.50
2018-03-16T08:22:54.966Z,18.30
2018-03-16T08:24:00.478Z,18.20
2018-03-16T08:25:05.994Z,19.70
2018-03-16T08:26:11.497Z,18.60
2018-03-16T08:27:17.023Z,18.30
2018-03-16T08:28:22.518Z,19.50
2018-03-16T08:29:28.036Z,19.40
2018-03-16T08:30:33.655Z,19.70
2018-03-16T08:31:39.037Z,19.50
2018-03-16T08:32:44.554Z,19.20
2018-03-16T08:33:50.062Z,19.80
2018-03-16T08:34:55.571Z,19.70
2018-03-16T08:36:01.075Z,19.80
2018-03-16T08:37:06.582Z,20.40
2018-03-16T08:38:12.097Z,20.70
2018-03-16T08:39:17.605Z,21.00
2018-03-16T08:40:23.117Z,21.70
2018-03-16T08:41:28.620Z,21.10
2018-03-16T08:42:34.134Z,21.90
2018-03-16T08:43:39.637Z,21.00
2018-03-16T08:44:45.148Z,20.60
2018-03-16T08:45:50.664Z,20.40
2018-03-16T08:46:56.174Z,20.90
2018-03-16T08:48:01.677Z,19.70
2018-03-16T08:49:07.187Z,20.40
2018-03-16T08:50:12.694Z,20.60
2018-03-16T08:51:18.200Z,20.60
2018-03-16T08:52:23.710Z,20.70
2018-03-16T08:53:29.219Z,20.50
2018-03-16T08:54:34.790Z,20.30
2018-03-16T08:55:40.246Z,20.00
2018-03-16T08:56:45.750Z,20.40
2018-03-16T08:57:51.263Z,20.80
2018-03-16T08:58:56.768Z,20.40
2018-03-16T09:00:02.282Z,20.00
2018-03-16T09:01:07.793Z,20.30
2018-03-16T09:02:13.305Z,21.60
2018-03-16T09:03:18.808Z,20.10
2018-03-16T09:04:24.319Z,20.40
2018-03-16T09:05:29.827Z,20.90
2018-03-16T09:06:35.331Z,21.20
2018-03-16T09:07:40.841Z,21.70
2018-03-16T09:08:46.370Z,21.90
2018-03-16T09:09:51.856Z,21.50
2018-03-16T09:10:57.367Z,22.30
2018-03-16T09:12:02.874Z,21.00
2018-03-16T09:13:08.395Z,22.30
2018-03-16T09:14:13.893Z,21.90
2018-03-16T09:15:19.406Z,20.50
2018-03-16T09:16:24.993Z,20.70
2018-03-16T09:17:30.422Z,20.40
2018-03-16T09:18:35.937Z,20.60
2018-03-16T09:19:41.447Z,21.20
2018-03-16T09:20:46.946Z,21.80
2018-03-16T09:21:52.463Z,21.70
2018-03-16T09:22:58.005Z,22.00
2018-03-16T09:24:03.496Z,20.90
2018-03-16T09:25:08.987Z,20.30
2018-03-16T09:26:14.500Z,21.10
2018-03-16T09:27:20.017Z,19.40
2018-03-16T09:28:25.512Z,20.40
2018-03-16T09:29:31.023Z,21.00
2018-03-16T09:30:36.527Z,19.90
2018-03-16T09:31:42.044Z,19.90
2018-03-16T09:32:47.554Z,18.70
2018-03-16T09:33:53.056Z,19.50
2018-03-16T09:34:58.571Z,20.00
2018-03-16T09:36:04.091Z,20.80
2018-03-16T09:37:09.585Z,20.00
2018-03-16T09:38:15.100Z,20.30
2018-03-16T09:39:20.603Z,19.80
2018-03-16T09:40:26.113Z,20.40
2018-03-16T09:41:31.627Z,19.90
2018-03-16T09:42:37.133Z,20.70
2018-03-16T09:43:42.646Z,19.00
2018-03-16T09:44:48.157Z,19.40
2018-03-16T09:45:53.666Z,19.40
2018-03-16T09:46:59.202Z,19.40
2018-03-16T09:48:04.685Z,19.60
2018-03-16T09:49:10.192Z,19.30
2018-03-16T09:50:15.700Z,18.50
2018-03-16T09:51:21.203Z,20.20
2018-03-16T09:52:26.714Z,19.00
2018-03-16T09:53:32.229Z,18.40
2018-03-16T09:54:37.736Z,19.50
2018-03-16T09:55:43.249Z,19.10
2018-03-16T09:56:48.746Z,20.40
2018-03-16T09:57:54.263Z,20.10
2018-03-16T09:58:59.765Z,20.30
2018-03-16T10:00:05.330Z,19.50
2018-03-16T10:01:10.785Z,20.20
2018-03-16T10:02:16.303Z,19.50
2018-03-16T10:03:21.798Z,18.80
2018-03-16T10:04:27.313Z,18.60
2018-03-16T10:05:32.828Z,19.00
2018-03-16T10:06:38.329Z,18.50
2018-03-16T10:07:43.843Z,18.50
2018-03-16T10:08:49.346Z,18.40
2018-03-16T10:09:54.856Z,18.90
2018-03-16T10:11:00.371Z,18.50
2018-03-16T10:12:05.881Z,18.90
2018-03-16T10:13:11.386Z,18.90
2018-03-16T10:14:16.901Z,18.70
2018-03-16T10:15:22.411Z,18.90
2018-03-16T10:16:27.917Z,18.30
2018-03-16T10:17:33.421Z,18.40
2018-03-16T10:18:38.946Z,18.80
2018-03-16T10:19:44.440Z,19.90
2018-03-16T10:20:49.963Z,19.00
2018-03-16T10:21:55.459Z,19.00
2018-03-16T10:23:00.968Z,20.00
2018-03-16T10:24:06.478Z,19.90
2018-03-16T10:25:11.990Z,19.90
2018-03-16T10:26:17.509Z,19.10
2018-03-16T10:27:23.006Z,19.10
2018-03-16T10:28:28.534Z,19.00
2018-03-16T10:29:34.031Z,19.00
2018-03-16T10:30:39.535Z,19.00
2018-03-16T10:31:45.047Z,19.80
2018-03-16T10:32:50.557Z,19.90
2018-03-16T10:33:56.066Z,19.80
2018-03-16T10:35:01.571Z,20.10
2018-03-16T10:36:07.077Z,20.00
2018-03-16T10:37:12.593Z,20.60
2018-03-16T10:38:18.113Z,20.20
2018-03-16T10:39:23.612Z,20.90
2018-03-16T10:40:29.177Z,21.30
2018-03-16T10:41:34.631Z,21.60
2018-03-16T10:42:40.144Z,20.90
2018-03-16T10:43:45.643Z,21.40
2018-03-16T10:44:51.152Z,20.10
2018-03-16T10:45:56.681Z,22.20
2018-03-16T10:47:02.172Z,21.50
2018-03-16T10:48:07.682Z,20.10
2018-03-16T10:49:13.189Z,22.00
2018-03-16T10:50:18.701Z,21.80
2018-03-16T10:51:24.219Z,21.70
2018-03-16T10:52:29.728Z,20.80
2018-03-16T10:53:35.230Z,21.00
2018-03-16T10:54:40.734Z,20.70
2018-03-16T10:55:46.247Z,21.10
2018-03-16T10:56:51.752Z,21.60
2018-03-16T10:57:57.264Z,21.60
2018-03-16T10:59:02.775Z,22.10
2018-03-16T11:00:08.288Z,21.40
2018-03-16T11:01:13.791Z,22.10
2018-03-16T11:02:19.307Z,21.30
2018-03-16T11:03:24.809Z,21.60
2018-03-16T11:04:30.321Z,20.70
2018-03-16T11:05:35.827Z,21.10
2018-03-16T11:06:41.342Z,21.90
2018-03-16T11:07:46.849Z,21.90
2018-03-16T11:08:52.354Z,20.70
2018-03-16T11:09:57.867Z,21.80
2018-03-16T11:11:03.378Z,21.20
2018-03-16T11:12:08.884Z,21.60
2018-03-16T11:13:14.395Z,21.20
2018-03-16T11:14:19.912Z,22.40
2018-03-16T11:15:25.422Z,21.20
2018-03-16T11:16:30.939Z,21.40
2018-03-16T11:17:36.435Z,22.10
2018-03-16T11:18:41.942Z,20.60
2018-03-16T11:19:47.453Z,20.40
2018-03-16T11:20:53.119Z,21.30
2018-03-16T11:21:58.474Z,20.60
2018-03-16T11:23:03.978Z,20.10
2018-03-16T11:24:09.503Z,21.00
2018-03-16T11:25:15.000Z,20.90
2018-03-16T11:26:20.517Z,21.70
2018-03-16T11:27:26.032Z,20.50
2018-03-16T11:28:31.535Z,20.80
2018-03-16T11:29:37.037Z,20.80
2018-03-16T11:30:42.543Z,20.00
2018-03-16T11:31:48.066Z,19.90
2018-03-16T11:32:53.561Z,21.50
2018-03-16T11:33:59.110Z,21.40
2018-03-16T11:35:04.585Z,21.70
2018-03-16T11:36:10.099Z,22.80
2018-03-16T11:37:15.602Z,21.60
2018-03-16T11:38:21.117Z,22.70
2018-03-16T11:39:26.628Z,21.70
2018-03-16T11:40:32.140Z,21.60
2018-03-16T11:41:37.659Z,21.00
2018-03-16T11:42:43.147Z,21.20
2018-03-16T11:43:48.706Z,21.00
2018-03-16T11:44:54.194Z,21.40
2018-03-16T11:45:59.687Z,20.80
2018-03-16T11:47:05.212Z,21.30
2018-03-16T11:48:10.702Z,22.40
2018-03-16T11:49:16.205Z,21.10
2018-03-16T11:50:21.727Z,20.90
2018-03-16T11:51:27.228Z,21.00
2018-03-16T11:52:32.732Z,20.50
2018-03-16T11:53:38.246Z,21.10
2018-03-16T11:54:43.751Z,20.30
2018-03-16T11:55:49.267Z,20.00
2018-03-16T11:56:54.785Z,20.70
2018-03-16T11:58:00.293Z,20.20
2018-03-16T11:59:05.793Z,19.80
2018-03-16T12:00:11.315Z,20.40
2018-03-16T12:01:16.813Z,20.50
2018-03-16T12:02:22.325Z,20.70
2018-03-16T12:03:27.831Z,19.70
2018-03-16T12:04:33.342Z,20.30
2018-03-16T12:05:38.846Z,19.90
2018-03-16T12:06:44.357Z,20.10
2018-03-16T12:07:49.868Z,18.70
2018-03-16T12:08:55.376Z,18.30
2018-03-16T12:10:00.890Z,17.80
2018-03-16T12:11:06.395Z,19.20
2018-03-16T12:12:11.905Z,18.80
2018-03-16T12:13:17.412Z,18.80
2018-03-16T12:14:22.924Z,18.00
2018-03-16T12:15:28.443Z,17.80
2018-03-16T12:16:33.950Z,17.40
2018-03-16T12:17:39.450Z,17.50
2018-03-16T12:18:44.962Z,16.80
2018-03-16T12:19:50.479Z,17.00
2018-03-16T12:20:55.984Z,17.90
2018-03-16T12:22:01.485Z,17.60
2018-03-16T12:23:07.025Z,17.70
2018-03-16T12:24:12.507Z,18.20
2018-03-16T12:25:18.020Z,17.50
2018-03-16T12:26:23.531Z,18.30
2018-03-16T12:27:29.075Z,16.50
2018-03-16T12:28:49.521Z,17.10
2018-03-16T12:29:40.063Z,16.60
2018-03-16T12:30:45.560Z,16.90
2018-03-16T12:31:51.070Z,17.80
2018-03-16T12:32:56.580Z,16.70
2018-03-16T12:34:02.098Z,16.30
2018-03-16T12:35:07.604Z,17.00
2018-03-16T12:36:13.119Z,16.80
2018-03-16T12:37:18.646Z,16.80
2018-03-16T12:38:24.148Z,17.20
2018-03-16T12:39:29.669Z,16.50
2018-03-16T12:40:35.155Z,16.70
2018-03-16T12:41:40.666Z,15.80
2018-03-16T12:42:46.167Z,16.70
2018-03-16T12:43:51.679Z,16.60
2018-03-16T12:44:57.198Z,15.90
2018-03-16T12:46:02.700Z,15.60
2018-03-16T12:47:08.201Z,15.90
2018-03-16T12:48:13.715Z,16.20
2018-03-16T12:49:19.219Z,15.60
2018-03-16T12:50:24.737Z,15.90
2018-03-16T12:51:30.312Z,15.30
2018-03-16T12:52:35.755Z,16.70
2018-03-16T12:53:41.260Z,16.00
2018-03-16T12:54:46.765Z,16.00
2018-03-16T12:55:52.284Z,15.50
2018-03-16T12:56:57.787Z,14.90
2018-03-16T12:58:03.328Z,15.20
2018-03-16T12:59:08.814Z,14.70
2018-03-16T13:00:14.389Z,15.10
2018-03-16T13:01:19.827Z,14.40
2018-03-16T13:02:25.376Z,14.60
2018-03-16T13:03:30.847Z,15.00
2018-03-16T13:04:36.369Z,15.10
2018-03-16T13:05:41.863Z,15.30
2018-03-16T13:06:47.381Z,14.10
2018-03-16T13:07:52.922Z,14.00
2018-03-16T13:08:58.443Z,13.80
2018-03-16T13:10:03.896Z,13.50
2018-03-16T13:11:09.408Z,13.80
2018-03-16T13:12:14.918Z,13.90
2018-03-16T13:13:20.436Z,14.10
2018-03-16T13:14:25.967Z,13.50
2018-03-16T13:15:31.525Z,12.50
2018-03-16T13:16:36.980Z,12.50
2018-03-16T13:17:42.470Z,13.00
2018-03-16T13:18:47.983Z,12.50
2018-03-16T13:19:53.476Z,12.00
2018-03-16T13:20:59.031Z,12.20
2018-03-16T13:22:04.500Z,12.00
2018-03-16T13:23:10.020Z,11.70
2018-03-16T13:24:15.525Z,12.40
2018-03-16T13:25:21.067Z,11.80
2018-03-16T13:26:26.532Z,12.20
2018-03-16T13:27:32.146Z,12.10
2018-03-16T13:28:37.554Z,12.50
2018-03-16T13:29:43.062Z,11.70
2018-03-16T13:30:48.644Z,11.40
2018-03-16T13:31:54.087Z,10.50
2018-03-16T13:32:59.633Z,10.70
2018-03-16T13:34:05.097Z,10.20
2018-03-16T13:35:10.610Z,10.00
2018-03-16T13:36:16.118Z,9.60
2018-03-16T13:37:21.624Z,10.10
2018-03-16T13:38:27.135Z,9.10
2018-03-16T13:39:32.646Z,9.00
2018-03-16T13:40:38.169Z,8.60
2018-03-16T13:41:43.687Z,9.20
2018-03-16T13:42:49.174Z,9.40
2018-03-16T13:43:54.674Z,9.10
2018-03-16T13:45:00.188Z,9.30
2018-03-16T13:46:05.698Z,9.30
2018-03-16T13:47:11.214Z,8.70
2018-03-16T13:48:16.722Z,9.20
2018-03-16T13:49:22.221Z,9.20
2018-03-16T13:50:27.736Z,8.50
2018-03-16T13:51:33.237Z,9.70
2018-03-16T13:52:38.747Z,8.50
2018-03-16T13:53:44.258Z,8.70
2018-03-16T13:54:49.766Z,8.20
2018-03-16T13:55:55.276Z,9.50
2018-03-16T13:57:00.799Z,9.00
2018-03-16T13:58:06.295Z,8.50
2018-03-16T13:59:11.802Z,8.70
2018-03-16T14:00:17.306Z,8.30
2018-03-16T14:01:22.815Z,8.20
2018-03-16T14:02:28.340Z,8.80
2018-03-16T14:03:33.829Z,8.70
2018-03-16T14:04:39.346Z,9.30